Churchill, VA

5:58 AM EST on December 10, 2016 (GMT -0500)
Lord Willing Dr. | | Change Station

Elev 499 ft 38.54 °N, 77.94 °W | Updated 10 seconds ago

Clear
Clear
27.9 °F
Feels Like 28 °F
N
2.9
Wind Variable Wind from WNW
Gusts 3.0 mph

Today
High -- | Low -- °F
--% Chance of Precip.
Yesterday
High -- | Low -- °F
Precip. -- in
Pressure 30.50 in
Visibility 10.0 miles
Clouds Clear
Windchill 28 °F
Dew Point 15 °F
Humidity 59%
Rainfall 0.00 in
Snow Depth Not available.
7:18 AM 4:51 PM
Waxing Gibbous, 82% visible
METAR KCJR 101035Z AUTO 00000KT 10SM CLR M05/M09 A3050 RMK AO2 T10471091
Pressure 30.50 in
Visibility 10.0 miles
Clouds Clear
Windchill 28 °F
Dew Point 15 °F
Humidity 59%
Rainfall 0.00 in
Snow Depth Not available.
7:18 AM 4:51 PM
Waxing Gibbous, 82% visible
METAR KCJR 101035Z AUTO 00000KT 10SM CLR M05/M09 A3050 RMK AO2 T10471091

10-Day Weather Forecast

Almanac

Astronomy

Dec. 10, 2016 Rise Set
Actual Time
Civil Twilight
Nautical Twilight
Astronomical Twilight
Moon
Length of Visible Light
Length of Day
Tomorrow will be .
, % of the Moon is Illuminated

Today's Extremes

State Highs State Lows

Community

WunderPhotos

Upload Photos

1,956,536 photos uploaded!

WunderBlog® & News

Nearby

Air Quality

  Air Quality AQ Index Pollutant
Not available.

Snow Depth

Station Depth Elevation

Earthquake Activity

City Distance Mag. Time & Date
Minimum magnitude displayed is 2.5.

Coastal Water Temperatures

Place Temperature

Stations

Nearby Weather Stations

Station Location Temp. Windchill Dew Point Humidity Wind Precip. Elev Updated Type
                   

Watches & Warnings

There are currently no watches in effect.